createdAt,value
2018-11-02T00:01:46.397Z,83.03
2018-11-02T00:04:15.159Z,83.72
2018-11-02T00:06:43.630Z,83.24
2018-11-02T00:09:12.126Z,84.40
2018-11-02T00:11:40.617Z,85.26
2018-11-02T00:14:09.092Z,84.24
2018-11-02T00:16:37.585Z,83.91
2018-11-02T00:19:06.512Z,84.42
2018-11-02T00:21:35.000Z,84.80
2018-11-02T00:24:03.715Z,83.37
2018-11-02T00:26:32.228Z,83.99
2018-11-02T00:29:00.700Z,84.62
2018-11-02T00:31:29.307Z,84.07
2018-11-02T00:33:57.764Z,85.08
2018-11-02T00:36:26.244Z,83.81
2018-11-02T00:38:54.731Z,84.91
2018-11-02T00:41:23.242Z,85.15
2018-11-02T00:43:51.773Z,85.12
2018-11-02T00:46:20.335Z,84.63
2018-11-02T00:48:48.843Z,81.38
2018-11-02T00:51:17.327Z,82.55
2018-11-02T00:53:45.819Z,84.04
2018-11-02T00:56:14.303Z,81.90
2018-11-02T00:58:42.795Z,79.48
2018-11-02T01:01:11.285Z,80.31
2018-11-02T01:03:39.843Z,81.70
2018-11-02T01:06:08.323Z,78.53
2018-11-02T01:08:36.828Z,79.32
2018-11-02T01:11:05.847Z,82.69
2018-11-02T01:13:34.557Z,81.99
2018-11-02T01:16:03.267Z,81.63
2018-11-02T01:18:31.753Z,82.16
2018-11-02T01:21:00.241Z,84.35
2018-11-02T01:23:28.696Z,79.50
2018-11-02T01:25:57.241Z,82.23
2018-11-02T01:28:25.763Z,80.89
2018-11-02T01:30:54.239Z,82.89
2018-11-02T01:33:28.034Z,80.27
2018-11-02T01:35:56.715Z,83.31
2018-11-02T01:38:25.195Z,83.31
2018-11-02T01:40:53.652Z,84.28
2018-11-02T01:43:22.578Z,83.18
2018-11-02T01:45:51.870Z,84.60
2018-11-02T01:48:20.393Z,85.51
2018-11-02T01:51:03.579Z,86.44
2018-11-02T01:53:32.116Z,84.80
2018-11-02T01:56:00.615Z,84.77
2018-11-02T01:58:29.643Z,86.29
2018-11-02T02:00:58.144Z,84.45
2018-11-02T02:04:29.339Z,84.44
2018-11-02T02:06:57.940Z,85.75
2018-11-02T02:09:26.440Z,85.62
2018-11-02T02:11:55.035Z,87.58
2018-11-02T02:14:23.599Z,86.89
2018-11-02T02:16:52.732Z,86.34
2018-11-02T02:19:21.290Z,84.69
2018-11-02T02:21:49.837Z,85.50
2018-11-02T02:24:18.316Z,84.96
2018-11-02T02:26:46.841Z,83.16
2018-11-02T02:29:15.460Z,83.68
2018-11-02T02:31:43.940Z,82.96
2018-11-02T02:34:12.836Z,83.37
2018-11-02T02:36:41.644Z,83.32
2018-11-02T02:39:10.938Z,81.45
2018-11-02T02:41:40.010Z,81.17
2018-11-02T02:44:08.747Z,80.54
2018-11-02T02:46:37.267Z,77.93
2018-11-02T02:49:06.688Z,76.91
2018-11-02T02:51:35.201Z,78.68
2018-11-02T02:54:04.123Z,78.12
2018-11-02T02:56:32.632Z,80.48
2018-11-02T02:59:01.368Z,80.63
2018-11-02T03:01:29.887Z,80.54
2018-11-02T03:03:58.391Z,77.85
2018-11-02T03:06:27.139Z,76.61
2018-11-02T03:08:56.015Z,76.88
2018-11-02T03:11:24.801Z,74.02
2018-11-02T03:13:53.291Z,77.55
2018-11-02T03:16:21.911Z,75.63
2018-11-02T03:18:50.493Z,74.75
2018-11-02T03:21:18.962Z,75.33
2018-11-02T03:23:47.475Z,77.72
2018-11-02T03:26:15.971Z,80.39
2018-11-02T03:28:44.468Z,79.29
2018-11-02T03:31:13.068Z,81.42
2018-11-02T03:33:41.737Z,81.00
2018-11-02T03:36:10.266Z,79.91
2018-11-02T03:38:38.858Z,79.77
2018-11-02T03:41:07.554Z,77.76
2018-11-02T03:43:36.085Z,80.94
2018-11-02T03:46:04.915Z,82.87
2018-11-02T03:48:33.708Z,81.93
2018-11-02T03:51:02.245Z,79.91
2018-11-02T03:53:30.730Z,81.06
2018-11-02T03:55:59.743Z,78.43
2018-11-02T03:58:28.236Z,79.04
2018-11-02T04:00:57.047Z,77.87
2018-11-02T04:03:25.535Z,78.51
2018-11-02T04:05:54.084Z,79.81
2018-11-02T04:08:22.689Z,78.59
2018-11-02T04:10:51.141Z,79.72
2018-11-02T04:13:19.690Z,79.86
2018-11-02T04:15:48.224Z,78.76
2018-11-02T04:18:16.722Z,75.75
2018-11-02T04:20:45.288Z,77.98
2018-11-02T04:23:13.801Z,75.87
2018-11-02T04:25:42.725Z,72.72
2018-11-02T04:28:11.268Z,69.25
2018-11-02T04:30:39.798Z,72.45
2018-11-02T04:33:08.511Z,70.03
2018-11-02T04:35:37.196Z,66.51
2018-11-02T04:38:06.147Z,72.82
2018-11-02T04:40:34.703Z,75.81
2018-11-02T04:43:03.184Z,74.15
2018-11-02T04:45:36.885Z,77.01
2018-11-02T04:48:05.953Z,78.04
2018-11-02T04:50:34.515Z,74.55
2018-11-02T04:53:03.791Z,75.59
2018-11-02T04:55:32.276Z,77.00
2018-11-02T04:58:01.099Z,78.36
2018-11-02T05:00:29.772Z,80.67
2018-11-02T05:02:58.707Z,78.73
2018-11-02T05:05:27.367Z,78.19
2018-11-02T05:07:55.868Z,78.87
2018-11-02T05:10:24.331Z,76.66
2018-11-02T05:12:52.837Z,78.62
2018-11-02T05:15:21.302Z,75.82
2018-11-02T05:17:50.039Z,78.02
2018-11-02T05:20:18.550Z,79.04
2018-11-02T05:22:47.055Z,80.93
2018-11-02T05:25:15.675Z,78.15
2018-11-02T05:27:44.516Z,78.60
2018-11-02T05:30:13.086Z,78.38
2018-11-02T05:32:41.581Z,77.02
2018-11-02T05:35:10.126Z,78.37
2018-11-02T05:37:38.604Z,79.30
2018-11-02T05:40:08.494Z,80.02
2018-11-02T05:42:37.010Z,80.02
2018-11-02T05:45:06.764Z,79.43
2018-11-02T05:47:35.431Z,77.12
2018-11-02T05:50:03.933Z,76.72
2018-11-02T05:52:32.627Z,76.82
2018-11-02T05:55:01.348Z,78.10
2018-11-02T05:57:29.825Z,78.93
2018-11-02T05:59:58.379Z,77.54
2018-11-02T06:02:26.853Z,77.76
2018-11-02T06:04:55.990Z,77.88
2018-11-02T06:07:24.489Z,77.18
2018-11-02T06:09:52.968Z,75.58
2018-11-02T06:12:21.511Z,76.63
2018-11-02T06:14:50.008Z,76.45
2018-11-02T06:17:18.667Z,76.56
2018-11-02T06:19:47.287Z,77.55
2018-11-02T06:22:16.215Z,78.55
2018-11-02T06:24:45.020Z,78.15
2018-11-02T06:27:13.591Z,79.75
2018-11-02T06:29:42.138Z,81.34
2018-11-02T06:32:10.629Z,79.31
2018-11-02T06:34:39.412Z,77.04
2018-11-02T06:37:08.256Z,76.45
2018-11-02T06:39:36.762Z,76.85
2018-11-02T06:42:05.660Z,76.10
2018-11-02T06:44:34.366Z,74.90
2018-11-02T06:47:02.882Z,76.03
2018-11-02T06:49:31.363Z,75.22
2018-11-02T06:51:59.815Z,74.04
2018-11-02T06:54:28.301Z,74.19
2018-11-02T06:56:56.801Z,71.76
2018-11-02T06:59:25.533Z,73.93
2018-11-02T07:01:53.917Z,73.68
2018-11-02T07:04:22.375Z,74.20
2018-11-02T07:06:50.924Z,74.07
2018-11-02T07:09:19.407Z,74.23
2018-11-02T07:11:47.892Z,74.64
2018-11-02T07:14:16.437Z,76.02
2018-11-02T07:16:45.371Z,77.41
2018-11-02T07:19:13.840Z,75.97
2018-11-02T07:21:42.346Z,77.49
2018-11-02T07:24:10.894Z,77.05
2018-11-02T07:26:39.375Z,78.13
2018-11-02T07:29:08.956Z,78.58
2018-11-02T07:31:37.501Z,78.47
2018-11-02T07:34:06.782Z,76.19
2018-11-02T07:36:35.362Z,74.21
2018-11-02T07:39:04.631Z,73.56
2018-11-02T07:41:33.096Z,73.06
2018-11-02T07:44:01.607Z,71.23
2018-11-02T07:46:30.070Z,70.41
2018-11-02T07:48:58.572Z,69.75
2018-11-02T07:51:27.229Z,69.57
2018-11-02T07:53:55.934Z,70.41
2018-11-02T07:56:24.459Z,69.87
2018-11-02T07:58:53.327Z,69.29
2018-11-02T08:01:21.985Z,73.08
2018-11-02T08:03:50.501Z,72.02
2018-11-02T08:06:18.974Z,72.10
2018-11-02T08:08:47.936Z,75.60
2018-11-02T08:11:16.534Z,72.94
2018-11-02T08:13:45.009Z,73.82
2018-11-02T08:16:13.519Z,75.86
2018-11-02T08:18:41.977Z,75.10
2018-11-02T08:21:10.453Z,73.79
2018-11-02T08:23:38.918Z,71.59
2018-11-02T08:26:07.443Z,73.89
2018-11-02T08:28:35.929Z,75.76
2018-11-02T08:31:04.421Z,76.62
2018-11-02T08:33:32.893Z,76.43
2018-11-02T08:36:01.517Z,77.33
2018-11-02T08:38:29.984Z,76.36
2018-11-02T08:40:59.140Z,74.23
2018-11-02T08:43:27.579Z,73.06
2018-11-02T08:45:56.219Z,74.00
2018-11-02T08:48:24.669Z,72.92
2018-11-02T08:50:53.133Z,71.55
2018-11-02T08:53:21.631Z,70.52
2018-11-02T08:55:50.184Z,71.42
2018-11-02T08:58:18.834Z,71.81
2018-11-02T09:00:47.427Z,74.06
2018-11-02T09:03:15.899Z,74.35
2018-11-02T09:05:44.375Z,75.44
2018-11-02T09:08:12.839Z,75.74
2018-11-02T09:10:41.294Z,74.92
2018-11-02T09:13:10.088Z,77.06
2018-11-02T09:15:38.600Z,78.35
2018-11-02T09:18:07.092Z,77.13
2018-11-02T09:20:35.680Z,77.44
2018-11-02T09:23:04.133Z,77.17
2018-11-02T09:25:32.665Z,76.24
2018-11-02T09:28:01.420Z,74.03
2018-11-02T09:30:29.847Z,73.26
2018-11-02T09:32:58.422Z,74.82
2018-11-02T09:35:26.900Z,73.56
2018-11-02T09:37:55.390Z,72.24
2018-11-02T09:40:23.945Z,74.58
2018-11-02T09:42:52.535Z,73.37
2018-11-02T09:45:20.826Z,70.01
2018-11-02T09:47:49.314Z,69.87
2018-11-02T09:50:17.794Z,71.91
2018-11-02T09:52:46.308Z,67.92
2018-11-02T09:55:15.887Z,68.06
2018-11-02T09:57:45.642Z,67.47
2018-11-02T10:00:14.852Z,69.13
2018-11-02T10:02:43.371Z,65.91
2018-11-02T10:05:12.683Z,66.53
2018-11-02T10:07:41.749Z,65.00
2018-11-02T10:10:11.873Z,64.80
2018-11-02T10:12:40.646Z,63.75
2018-11-02T10:15:11.962Z,63.02
2018-11-02T10:17:40.486Z,59.77
2018-11-02T10:20:09.937Z,59.59
2018-11-02T10:22:38.711Z,59.02
2018-11-02T10:25:08.158Z,58.67
2018-11-02T10:27:37.013Z,59.48
2018-11-02T10:30:07.643Z,60.30
2018-11-02T10:32:36.175Z,55.11
2018-11-02T10:35:05.016Z,58.34
2018-11-02T10:37:33.684Z,56.92
2018-11-02T10:40:02.404Z,55.49
2018-11-02T10:42:30.962Z,55.17
2018-11-02T10:44:59.592Z,54.97
2018-11-02T10:47:28.036Z,53.68
2018-11-02T10:49:56.554Z,54.73
2018-11-02T10:52:25.047Z,55.64
2018-11-02T10:54:53.608Z,55.66
2018-11-02T10:57:22.100Z,54.79
2018-11-02T10:59:50.578Z,55.58
2018-11-02T11:02:24.868Z,58.40
2018-11-02T11:04:53.348Z,57.75
2018-11-02T11:07:21.914Z,56.72
2018-11-02T11:09:50.421Z,58.63
2018-11-02T11:12:19.092Z,61.11
2018-11-02T11:14:47.764Z,61.03
2018-11-02T11:17:16.427Z,56.91
2018-11-02T11:19:44.923Z,59.42
2018-11-02T11:22:13.464Z,61.34
2018-11-02T11:24:41.946Z,60.02
2018-11-02T11:27:10.530Z,61.46
2018-11-02T11:29:38.987Z,61.63
2018-11-02T11:32:07.754Z,62.60
2018-11-02T11:34:36.235Z,62.42
2018-11-02T11:37:05.292Z,61.92
2018-11-02T11:39:33.887Z,61.53
2018-11-02T11:42:02.335Z,60.09
2018-11-02T11:44:31.059Z,63.60
2018-11-02T11:46:59.870Z,65.10
2018-11-02T11:49:28.428Z,67.50
2018-11-02T11:51:56.944Z,65.89
2018-11-02T11:54:25.817Z,66.13
2018-11-02T11:56:54.491Z,68.26
2018-11-02T11:59:23.018Z,69.07
2018-11-02T12:01:51.515Z,68.06
2018-11-02T12:04:20.314Z,65.61
2018-11-02T12:06:48.949Z,65.76
2018-11-02T12:09:17.426Z,65.27
2018-11-02T12:11:46.031Z,65.51
2018-11-02T12:14:14.836Z,65.09
2018-11-02T12:16:43.377Z,60.86
2018-11-02T12:19:11.907Z,61.43
2018-11-02T12:21:40.446Z,60.39
2018-11-02T12:24:08.923Z,62.63
2018-11-02T12:26:37.480Z,62.46
2018-11-02T12:29:06.397Z,60.96
2018-11-02T12:31:34.904Z,60.18
2018-11-02T12:34:03.381Z,60.09
2018-11-02T12:36:32.207Z,59.85
2018-11-02T12:39:01.421Z,60.14
2018-11-02T12:41:29.922Z,62.01
2018-11-02T12:43:58.464Z,61.03
2018-11-02T12:46:26.969Z,62.53
2018-11-02T12:48:55.759Z,61.63
2018-11-02T12:51:24.107Z,62.70
2018-11-02T12:53:52.657Z,61.92
2018-11-02T12:56:21.854Z,62.63
2018-11-02T12:58:50.511Z,59.92
2018-11-02T13:01:19.000Z,58.13
2018-11-02T13:03:47.477Z,58.78
2018-11-02T13:06:16.152Z,59.48
2018-11-02T13:08:44.686Z,58.77
2018-11-02T13:11:13.200Z,57.23
2018-11-02T13:13:41.750Z,60.30
2018-11-02T13:16:10.476Z,59.98
2018-11-02T13:18:39.088Z,59.25
2018-11-02T13:21:07.623Z,60.26
2018-11-02T13:23:36.162Z,60.17
2018-11-02T13:26:05.165Z,60.64
2018-11-02T13:28:33.988Z,62.00
2018-11-02T13:31:02.557Z,63.13
2018-11-02T13:33:30.977Z,62.93
2018-11-02T13:35:59.561Z,63.62
2018-11-02T13:38:28.016Z,62.65
2018-11-02T13:40:56.512Z,64.55
2018-11-02T13:43:25.009Z,65.25
2018-11-02T13:45:53.449Z,66.66
2018-11-02T13:48:21.976Z,66.94
2018-11-02T13:50:50.532Z,67.29
2018-11-02T13:53:19.007Z,67.85
2018-11-02T13:55:47.518Z,66.88
2018-11-02T13:58:16.179Z,65.92
2018-11-02T14:00:44.683Z,66.46
2018-11-02T14:03:13.188Z,66.78
2018-11-02T14:05:41.863Z,69.82
2018-11-02T14:08:10.380Z,68.65
2018-11-02T14:10:39.060Z,68.65
2018-11-02T14:13:07.592Z,65.63
2018-11-02T14:15:36.065Z,65.61
2018-11-02T14:18:04.572Z,64.67
2018-11-02T14:20:33.088Z,62.97
2018-11-02T14:23:01.594Z,64.76
2018-11-02T14:25:30.347Z,66.22
2018-11-02T14:27:58.948Z,65.01
2018-11-02T14:30:28.391Z,65.57
2018-11-02T14:32:56.864Z,69.06
2018-11-02T14:35:25.406Z,68.65
2018-11-02T14:37:54.187Z,65.59
2018-11-02T14:40:22.696Z,65.44
2018-11-02T14:42:51.433Z,66.54
2018-11-02T14:45:19.941Z,65.74
2018-11-02T14:47:49.372Z,65.09
2018-11-02T14:50:17.924Z,66.94
2018-11-02T14:52:46.479Z,65.99
2018-11-02T14:55:14.983Z,65.43
2018-11-02T14:57:43.514Z,65.96
2018-11-02T15:00:12.780Z,63.77
2018-11-02T15:02:41.981Z,63.13
2018-11-02T15:05:12.540Z,65.79
2018-11-02T15:07:41.894Z,66.49
2018-11-02T15:10:10.615Z,66.90
2018-11-02T15:12:39.888Z,65.34
2018-11-02T15:15:09.128Z,66.31
2018-11-02T15:17:37.635Z,67.28
2018-11-02T15:20:08.655Z,67.23
2018-11-02T15:22:37.517Z,66.71
2018-11-02T15:25:06.870Z,69.35
2018-11-02T15:27:35.400Z,72.53
2018-11-02T15:30:04.210Z,70.52
2018-11-02T15:32:32.736Z,71.34
2018-11-02T15:35:01.189Z,73.16
2018-11-02T15:37:29.728Z,72.83
2018-11-02T15:39:58.532Z,73.70
2018-11-02T15:42:27.000Z,72.59
2018-11-02T15:44:55.483Z,71.78
2018-11-02T15:47:23.967Z,71.72
2018-11-02T15:49:52.501Z,71.80
2018-11-02T15:52:21.159Z,75.60
2018-11-02T15:54:49.695Z,76.15
2018-11-02T15:57:18.203Z,72.27
2018-11-02T15:59:46.899Z,75.08
2018-11-02T16:02:15.393Z,75.11
2018-11-02T16:04:44.186Z,75.92
2018-11-02T16:07:12.740Z,77.76
2018-11-02T16:09:41.462Z,78.65
2018-11-02T16:12:10.183Z,76.30
2018-11-02T16:14:38.754Z,78.13
2018-11-02T16:17:07.227Z,78.41
2018-11-02T16:19:35.951Z,78.42
2018-11-02T16:22:04.494Z,80.44
2018-11-02T16:24:32.996Z,78.92
2018-11-02T16:27:01.444Z,79.66
2018-11-02T16:29:29.937Z,80.90
2018-11-02T16:31:58.442Z,80.33
2018-11-02T16:34:26.917Z,81.87
2018-11-02T16:36:55.441Z,82.63
2018-11-02T16:39:23.920Z,81.01
2018-11-02T16:41:52.409Z,80.74
2018-11-02T16:44:21.011Z,82.41
2018-11-02T16:46:49.384Z,78.25
2018-11-02T16:49:17.922Z,78.11
2018-11-02T16:51:46.408Z,77.85
2018-11-02T16:54:14.923Z,76.04
2018-11-02T16:56:43.492Z,76.07
2018-11-02T16:59:11.976Z,75.78
2018-11-02T17:01:40.777Z,77.21
2018-11-02T17:04:09.483Z,80.92
2018-11-02T17:06:38.014Z,76.87
2018-11-02T17:09:10.108Z,76.45
2018-11-02T17:11:38.700Z,78.49
2018-11-02T17:14:07.832Z,78.43
2018-11-02T17:16:36.684Z,80.43
2018-11-02T17:19:05.604Z,80.37
2018-11-02T17:21:34.133Z,83.32
2018-11-02T17:24:03.436Z,83.84
2018-11-02T17:26:32.274Z,87.22
2018-11-02T17:29:01.246Z,87.34
2018-11-02T17:31:30.087Z,88.58
2018-11-02T17:33:58.535Z,89.31
2018-11-02T17:36:27.230Z,91.02
2018-11-02T17:38:55.562Z,89.96
2018-11-02T17:41:24.219Z,88.84
2018-11-02T17:43:52.690Z,89.54
2018-11-02T17:46:21.301Z,91.70
2018-11-02T17:48:50.054Z,92.46
2018-11-02T17:51:18.487Z,91.13
2018-11-02T17:53:47.312Z,91.17
2018-11-02T17:56:15.861Z,93.39
2018-11-02T17:58:44.619Z,91.26
2018-11-02T18:01:13.258Z,91.00
2018-11-02T18:03:42.114Z,85.95
2018-11-02T18:06:10.591Z,85.47
2018-11-02T18:08:39.194Z,88.95
2018-11-02T18:11:07.748Z,86.40
2018-11-02T18:13:36.566Z,85.97
2018-11-02T18:16:06.038Z,86.81
2018-11-02T18:18:34.872Z,86.69
2018-11-02T18:21:03.912Z,84.14
2018-11-02T18:23:32.397Z,88.10
2018-11-02T18:26:01.144Z,89.62
2018-11-02T18:28:29.658Z,90.91
2018-11-02T18:30:58.401Z,91.73
2018-11-02T18:33:26.923Z,89.15
2018-11-02T18:35:55.547Z,91.37
2018-11-02T18:38:24.524Z,87.54
2018-11-02T18:40:53.022Z,88.94
2018-11-02T18:43:21.474Z,89.87
2018-11-02T18:45:50.224Z,91.33
2018-11-02T18:48:20.615Z,88.85
2018-11-02T18:50:49.379Z,89.28
2018-11-02T18:53:17.861Z,89.48
2018-11-02T18:55:46.359Z,91.22
2018-11-02T18:58:14.842Z,91.91
2018-11-02T19:00:43.830Z,91.43
2018-11-02T19:03:12.301Z,90.75
2018-11-02T19:05:40.809Z,89.42
2018-11-02T19:08:09.247Z,90.61
2018-11-02T19:10:37.768Z,91.81
2018-11-02T19:13:06.968Z,91.88
2018-11-02T19:15:35.446Z,89.75
2018-11-02T19:18:03.950Z,86.79
2018-11-02T19:20:32.478Z,86.83
2018-11-02T19:23:01.410Z,88.75
2018-11-02T19:25:30.132Z,91.65
2018-11-02T19:27:58.586Z,94.65
2018-11-02T19:30:27.117Z,95.72
2018-11-02T19:32:55.738Z,93.44
2018-11-02T19:35:24.719Z,93.44
2018-11-02T19:37:53.169Z,94.45
2018-11-02T19:40:21.754Z,94.54
2018-11-02T19:42:50.276Z,98.21
2018-11-02T19:45:18.818Z,97.27
2018-11-02T19:48:02.849Z,97.82
2018-11-02T19:50:31.424Z,99.21
2018-11-02T19:52:59.836Z,100.00
2018-11-02T19:55:28.579Z,99.24
2018-11-02T19:57:57.095Z,100.00
2018-11-02T20:00:25.719Z,100.00
2018-11-02T20:02:54.219Z,99.56
2018-11-02T20:05:22.696Z,100.00
2018-11-02T20:07:51.203Z,97.72
2018-11-02T20:10:19.716Z,97.86
2018-11-02T20:12:49.069Z,99.68
2018-11-02T20:15:18.066Z,100.00
2018-11-02T20:17:46.923Z,100.00
2018-11-02T20:20:16.403Z,99.27
2018-11-02T20:22:45.134Z,98.84
2018-11-02T20:25:15.264Z,99.89
2018-11-02T20:27:44.352Z,98.77
2018-11-02T20:30:21.511Z,98.54
2018-11-02T20:32:50.048Z,99.15
2018-11-02T20:35:18.560Z,100.00
2018-11-02T20:37:47.060Z,100.00
2018-11-02T20:40:17.602Z,99.72
2018-11-02T20:42:46.544Z,99.10
2018-11-02T20:45:15.679Z,98.07
2018-11-02T20:47:48.200Z,98.97
2018-11-02T20:50:17.251Z,95.86
2018-11-02T20:52:45.771Z,92.46
2018-11-02T20:55:15.164Z,95.47
2018-11-02T20:57:44.066Z,95.06
2018-11-02T21:00:14.736Z,94.50
2018-11-02T21:02:43.906Z,96.24
2018-11-02T21:05:14.464Z,96.01
2018-11-02T21:07:43.577Z,97.24
2018-11-02T21:10:13.512Z,98.24
2018-11-02T21:12:42.304Z,96.60
2018-11-02T21:15:14.091Z,96.84
2018-11-02T21:17:42.721Z,98.34
2018-11-02T21:20:13.406Z,99.61
2018-11-02T21:22:42.809Z,99.64
2018-11-02T21:25:12.394Z,100.00
2018-11-02T21:27:41.819Z,99.41
2018-11-02T21:30:14.759Z,99.26
2018-11-02T21:32:44.158Z,99.90
2018-11-02T21:35:12.661Z,99.95
2018-11-02T21:37:41.168Z,98.40
2018-11-02T21:40:13.709Z,100.00
2018-11-02T21:42:42.792Z,99.48
2018-11-02T21:45:12.151Z,99.89
2018-11-02T21:47:40.612Z,100.00
2018-11-02T21:50:10.140Z,99.13
2018-11-02T21:52:38.632Z,98.45
2018-11-02T21:55:07.804Z,99.46
2018-11-02T21:57:36.636Z,100.00
2018-11-02T22:00:07.039Z,100.00
2018-11-02T22:02:35.766Z,99.34
2018-11-02T22:05:04.349Z,99.73
2018-11-02T22:07:32.870Z,99.89
2018-11-02T22:10:01.468Z,100.00
2018-11-02T22:12:29.980Z,99.52
2018-11-02T22:14:58.456Z,98.63
2018-11-02T22:17:27.244Z,100.00
2018-11-02T22:19:56.041Z,99.15
2018-11-02T22:22:24.592Z,100.00
2018-11-02T22:24:53.287Z,100.00
2018-11-02T22:27:21.912Z,98.68
2018-11-02T22:29:50.354Z,100.00
2018-11-02T22:32:19.024Z,100.00
2018-11-02T22:34:47.543Z,100.00
2018-11-02T22:37:16.114Z,100.00
2018-11-02T22:39:44.692Z,100.00
2018-11-02T22:42:13.191Z,100.00
2018-11-02T22:44:42.075Z,100.00
2018-11-02T22:47:10.863Z,100.00
2018-11-02T22:49:39.321Z,100.00
2018-11-02T22:52:07.842Z,100.00
2018-11-02T22:54:36.522Z,100.00
2018-11-02T22:57:05.063Z,100.00
2018-11-02T22:59:33.571Z,100.00
2018-11-02T23:02:02.097Z,100.00
2018-11-02T23:04:30.766Z,100.00
2018-11-02T23:06:59.312Z,100.00
2018-11-02T23:09:27.814Z,100.00
2018-11-02T23:11:56.330Z,100.00
2018-11-02T23:14:24.799Z,100.00
2018-11-02T23:16:53.337Z,100.00
2018-11-02T23:19:21.877Z,100.00
2018-11-02T23:21:50.300Z,100.00
2018-11-02T23:24:18.859Z,100.00
2018-11-02T23:26:47.317Z,100.00
2018-11-02T23:29:15.850Z,100.00
2018-11-02T23:31:44.360Z,100.00
2018-11-02T23:34:12.820Z,100.00
2018-11-02T23:36:41.345Z,100.00
2018-11-02T23:39:10.253Z,99.43
2018-11-02T23:41:38.886Z,98.60
2018-11-02T23:44:07.384Z,97.76
2018-11-02T23:46:35.915Z,100.00
2018-11-02T23:49:04.455Z,100.00
2018-11-02T23:51:32.951Z,100.00
2018-11-02T23:54:01.706Z,100.00
2018-11-02T23:56:30.276Z,100.00
2018-11-02T23:58:58.795Z,100.00
